createdAt,value
2023-03-15T00:01:10.643Z,2.15
2023-03-15T00:04:14.127Z,2.17
2023-03-15T00:07:16.417Z,1.90
2023-03-15T00:10:18.859Z,1.57
2023-03-15T00:13:21.266Z,1.90
2023-03-15T00:16:27.488Z,1.58
2023-03-15T00:19:30.089Z,1.33
2023-03-15T00:22:32.431Z,1.17
2023-03-15T00:25:34.726Z,1.10
2023-03-15T00:28:37.203Z,0.90
2023-03-15T00:31:39.490Z,0.90
2023-03-15T00:34:41.937Z,0.90
2023-03-15T00:37:45.121Z,1.13
2023-03-15T00:40:47.416Z,0.70
2023-03-15T00:43:50.416Z,0.80
2023-03-15T00:46:52.875Z,0.80
2023-03-15T00:49:55.234Z,0.60
2023-03-15T00:52:58.439Z,0.98
2023-03-15T00:56:05.741Z,0.87
2023-03-15T00:59:08.734Z,0.50
2023-03-15T01:02:11.315Z,0.73
2023-03-15T01:05:14.378Z,0.70
2023-03-15T01:08:16.708Z,0.60
2023-03-15T01:11:24.500Z,0.70
2023-03-15T01:14:30.854Z,0.70
2023-03-15T01:17:34.435Z,0.60
2023-03-15T01:20:37.651Z,0.60
2023-03-15T01:23:40.717Z,0.80
2023-03-15T01:26:43.213Z,0.53
2023-03-15T01:29:47.121Z,0.60
2023-03-15T01:32:50.861Z,0.70
2023-03-15T01:36:05.651Z,0.77
2023-03-15T01:39:08.717Z,0.60
2023-03-15T01:42:17.011Z,0.60
2023-03-15T01:45:57.192Z,0.60
2023-03-15T01:49:29.143Z,0.68
2023-03-15T01:52:34.848Z,0.55
2023-03-15T01:55:38.424Z,0.50
2023-03-15T01:58:45.117Z,0.60
2023-03-15T02:01:48.300Z,0.70
2023-03-15T02:04:59.327Z,0.47
2023-03-15T02:08:02.842Z,0.60
2023-03-15T02:11:08.809Z,0.50
2023-03-15T02:14:12.574Z,0.60
2023-03-15T02:17:19.402Z,0.63
2023-03-15T02:20:28.071Z,0.68
2023-03-15T02:23:32.077Z,0.60
2023-03-15T02:26:44.677Z,0.70
2023-03-15T02:29:46.960Z,0.60
2023-03-15T02:32:49.462Z,0.68
2023-03-15T02:35:53.446Z,0.73
2023-03-15T02:38:56.830Z,0.60
2023-03-15T02:41:59.420Z,0.63
2023-03-15T02:45:04.344Z,0.50
2023-03-15T02:48:07.763Z,0.40
2023-03-15T02:51:18.729Z,0.75
2023-03-15T02:54:21.698Z,0.52
2023-03-15T02:57:24.045Z,0.68
2023-03-15T03:00:27.521Z,0.77
2023-03-15T03:03:29.921Z,0.57
2023-03-15T03:06:32.489Z,0.70
2023-03-15T03:09:36.604Z,0.80
2023-03-15T03:12:39.053Z,0.50
2023-03-15T03:15:45.592Z,0.93
2023-03-15T03:18:49.759Z,0.60
2023-03-15T03:21:56.854Z,0.80
2023-03-15T03:24:59.146Z,0.77
2023-03-15T03:28:04.495Z,0.90
2023-03-15T03:31:07.385Z,0.73
2023-03-15T03:34:11.109Z,0.60
2023-03-15T03:37:13.450Z,0.95
2023-03-15T03:40:39.980Z,0.75
2023-03-15T03:43:43.529Z,0.52
2023-03-15T03:46:46.259Z,0.63
2023-03-15T03:49:49.676Z,0.70
2023-03-15T03:52:52.050Z,0.63
2023-03-15T03:55:59.112Z,0.60
2023-03-15T03:59:01.531Z,0.60
2023-03-15T04:02:16.234Z,0.60
2023-03-15T04:05:25.988Z,0.63
2023-03-15T04:08:28.572Z,0.70
2023-03-15T04:11:31.318Z,0.70
2023-03-15T04:14:39.311Z,0.73
2023-03-15T04:17:44.216Z,0.90
2023-03-15T04:20:47.718Z,0.80
2023-03-15T04:23:53.957Z,0.60
2023-03-15T04:27:20.067Z,0.50
2023-03-15T04:30:37.931Z,0.45
2023-03-15T04:34:00.433Z,0.40
2023-03-15T04:37:22.069Z,0.50
2023-03-15T04:40:37.688Z,0.50
2023-03-15T04:43:52.536Z,0.50
2023-03-15T04:47:06.928Z,0.40
2023-03-15T04:50:44.906Z,0.30
2023-03-15T04:54:10.032Z,0.38
2023-03-15T04:57:31.333Z,0.30
2023-03-15T05:00:49.278Z,0.30
2023-03-15T05:04:04.993Z,0.28
2023-03-15T05:07:30.276Z,0.70
2023-03-15T05:10:52.771Z,0.38
2023-03-15T05:14:03.193Z,0.43
2023-03-15T05:17:17.681Z,0.60
2023-03-15T05:20:38.674Z,0.57
2023-03-15T05:23:47.192Z,0.20
2023-03-15T05:27:13.722Z,0.40
2023-03-15T05:30:33.346Z,0.40
2023-03-15T05:33:36.181Z,0.50
2023-03-15T05:37:04.757Z,0.38
2023-03-15T05:40:10.527Z,0.83
2023-03-15T05:43:39.239Z,0.40
2023-03-15T05:47:00.320Z,0.85
2023-03-15T05:50:22.051Z,0.80
2023-03-15T05:53:45.275Z,0.80
2023-03-15T05:57:07.373Z,0.80
2023-03-15T06:00:29.944Z,0.75
2023-03-15T06:03:38.915Z,0.82
2023-03-15T06:06:49.695Z,1.17
2023-03-15T06:09:53.962Z,1.38
2023-03-15T06:12:57.054Z,1.30
2023-03-15T06:16:00.049Z,1.50
2023-03-15T06:19:03.426Z,1.45
2023-03-15T06:22:06.950Z,1.50
2023-03-15T06:25:32.136Z,1.30
2023-03-15T06:28:34.939Z,1.50
2023-03-15T06:31:37.613Z,1.63
2023-03-15T06:34:43.809Z,2.08
2023-03-15T06:37:48.485Z,2.20
2023-03-15T06:40:51.504Z,2.03
2023-03-15T06:43:53.949Z,1.90
2023-03-15T06:46:57.287Z,2.90
2023-03-15T06:49:59.836Z,2.10
2023-03-15T06:53:03.179Z,2.05
2023-03-15T06:56:05.643Z,2.42
2023-03-15T06:59:08.088Z,2.00
2023-03-15T07:02:15.765Z,2.10
2023-03-15T07:05:18.200Z,2.10
2023-03-15T07:08:24.289Z,2.55
2023-03-15T07:11:26.821Z,2.28
2023-03-15T07:14:29.143Z,2.30
2023-03-15T07:17:31.464Z,2.35
2023-03-15T07:20:35.615Z,2.25
2023-03-15T07:23:39.970Z,2.47
2023-03-15T07:26:42.414Z,2.38
2023-03-15T07:29:44.750Z,2.30
2023-03-15T07:32:47.411Z,2.47
2023-03-15T07:35:56.437Z,2.33
2023-03-15T07:38:58.860Z,2.08
2023-03-15T07:42:01.312Z,2.58
2023-03-15T07:45:13.254Z,2.53
2023-03-15T07:48:15.677Z,2.17
2023-03-15T07:51:18.056Z,2.28
2023-03-15T07:54:21.047Z,2.60
2023-03-15T07:57:23.583Z,2.40
2023-03-15T08:00:26.186Z,2.37
2023-03-15T08:03:28.532Z,2.30
2023-03-15T08:06:31.959Z,2.00
2023-03-15T08:09:35.328Z,2.38
2023-03-15T08:12:39.441Z,2.13
2023-03-15T08:15:41.844Z,2.20
2023-03-15T08:18:44.204Z,1.92
2023-03-15T08:21:46.445Z,2.15
2023-03-15T08:24:49.701Z,2.20
2023-03-15T08:27:52.682Z,2.08
2023-03-15T08:30:54.919Z,1.97
2023-03-15T08:33:57.351Z,1.70
2023-03-15T08:37:00.180Z,1.90
2023-03-15T08:40:07.856Z,1.75
2023-03-15T08:43:10.169Z,1.60
2023-03-15T08:46:12.987Z,2.40
2023-03-15T08:49:15.417Z,1.70
2023-03-15T08:52:18.330Z,2.30
2023-03-15T08:55:21.225Z,2.20
2023-03-15T08:58:24.000Z,1.73
2023-03-15T09:01:26.312Z,1.90
2023-03-15T09:04:28.776Z,1.73
2023-03-15T09:07:32.841Z,1.70
2023-03-15T09:10:35.130Z,1.60
2023-03-15T09:13:37.456Z,1.58
2023-03-15T09:16:39.765Z,1.93
2023-03-15T09:19:42.153Z,1.90
2023-03-15T09:22:50.854Z,1.80
2023-03-15T09:25:53.189Z,1.80
2023-03-15T09:28:55.481Z,1.88
2023-03-15T09:31:57.774Z,2.60
2023-03-15T09:35:00.151Z,2.58
2023-03-15T09:38:04.026Z,2.60
2023-03-15T09:41:06.601Z,1.92
2023-03-15T09:44:33.873Z,2.20
2023-03-15T09:48:27.201Z,1.90
2023-03-15T09:51:58.139Z,2.28
2023-03-15T09:55:05.633Z,1.40
2023-03-15T09:58:24.542Z,1.80
2023-03-15T10:01:33.381Z,1.67
2023-03-15T10:04:40.685Z,1.87
2023-03-15T10:07:42.973Z,1.67
2023-03-15T10:10:56.872Z,1.92
2023-03-15T10:14:14.837Z,1.60
2023-03-15T10:17:38.852Z,2.10
2023-03-15T10:20:47.290Z,2.20
2023-03-15T10:23:53.418Z,1.80
2023-03-15T10:26:59.643Z,1.80
2023-03-15T10:30:03.098Z,1.70
2023-03-15T10:33:24.091Z,1.40
2023-03-15T10:36:26.459Z,1.40
2023-03-15T10:39:28.912Z,1.63
2023-03-15T10:42:33.126Z,1.83
2023-03-15T10:45:35.620Z,2.03
2023-03-15T10:48:52.470Z,1.90
2023-03-15T10:51:59.152Z,1.97
2023-03-15T10:55:16.067Z,1.73
2023-03-15T10:58:18.297Z,1.73
2023-03-15T11:01:34.912Z,1.48
2023-03-15T11:04:41.624Z,1.55
2023-03-15T11:07:57.872Z,2.10
2023-03-15T11:11:00.345Z,1.77
2023-03-15T11:14:02.677Z,1.48
2023-03-15T11:17:08.217Z,1.77
2023-03-15T11:20:34.292Z,2.28
2023-03-15T11:23:38.914Z,1.80
2023-03-15T11:26:41.395Z,1.98
2023-03-15T11:29:48.188Z,1.92
2023-03-15T11:32:50.971Z,1.88
2023-03-15T11:35:55.370Z,1.65
2023-03-15T11:39:02.532Z,1.70
2023-03-15T11:42:14.056Z,1.90
2023-03-15T11:45:44.545Z,2.20
2023-03-15T11:49:33.763Z,1.80
2023-03-15T11:52:36.080Z,1.95
2023-03-15T11:55:38.480Z,2.10
2023-03-15T11:58:45.115Z,1.90
2023-03-15T12:01:49.846Z,1.60
2023-03-15T12:04:54.510Z,1.95
2023-03-15T12:07:59.383Z,1.60
2023-03-15T12:11:02.661Z,1.90
2023-03-15T12:14:06.949Z,1.73
2023-03-15T12:17:24.495Z,2.28
2023-03-15T12:20:44.611Z,1.63
2023-03-15T12:23:58.718Z,1.45
2023-03-15T12:27:03.179Z,2.20
2023-03-15T12:30:06.550Z,1.80
2023-03-15T12:33:21.096Z,1.65
2023-03-15T12:36:37.232Z,1.50
2023-03-15T12:39:49.192Z,2.00
2023-03-15T12:42:54.696Z,2.10
2023-03-15T12:45:57.042Z,1.90
2023-03-15T12:49:12.940Z,1.73
2023-03-15T12:52:24.281Z,1.80
2023-03-15T12:55:32.499Z,2.00
2023-03-15T12:58:39.388Z,1.40
2023-03-15T13:01:43.034Z,1.63
2023-03-15T13:04:49.915Z,1.42
2023-03-15T13:07:56.649Z,1.08
2023-03-15T13:11:11.222Z,1.40
2023-03-15T13:14:51.373Z,1.57
2023-03-15T13:17:58.958Z,1.35
2023-03-15T13:21:21.100Z,1.60
2023-03-15T13:24:35.442Z,1.40
2023-03-15T13:27:47.018Z,1.48
2023-03-15T13:30:52.716Z,1.87
2023-03-15T13:33:57.862Z,1.73
2023-03-15T13:37:02.401Z,1.58
2023-03-15T13:40:12.056Z,1.40
2023-03-15T13:43:14.406Z,1.55
2023-03-15T13:46:18.737Z,1.87
2023-03-15T13:49:21.603Z,2.03
2023-03-15T13:52:24.019Z,1.70
2023-03-15T13:55:32.217Z,1.80
2023-03-15T13:58:37.324Z,1.42
2023-03-15T14:01:42.518Z,1.60
2023-03-15T14:04:50.444Z,1.88
2023-03-15T14:08:21.956Z,1.38
2023-03-15T14:11:24.277Z,1.40
2023-03-15T14:14:29.691Z,1.00
2023-03-15T14:17:32.257Z,1.50
2023-03-15T14:20:41.395Z,1.10
2023-03-15T14:23:46.187Z,1.50
2023-03-15T14:26:58.075Z,1.20
2023-03-15T14:30:02.210Z,1.23
2023-03-15T14:33:08.882Z,1.20
2023-03-15T14:36:30.605Z,1.00
2023-03-15T14:39:35.917Z,1.27
2023-03-15T14:42:38.268Z,1.30
2023-03-15T14:45:42.782Z,1.50
2023-03-15T14:48:45.380Z,1.10
2023-03-15T14:51:49.062Z,1.00
2023-03-15T14:54:51.525Z,1.30
2023-03-15T14:57:53.908Z,1.73
2023-03-15T15:00:58.056Z,1.55
2023-03-15T15:04:02.089Z,1.07
2023-03-15T15:07:05.156Z,1.00
2023-03-15T15:10:07.854Z,1.23
2023-03-15T15:13:19.617Z,1.00
2023-03-15T15:16:22.349Z,1.40
2023-03-15T15:19:24.677Z,1.10
2023-03-15T15:22:27.273Z,0.95
2023-03-15T15:25:30.964Z,1.38
2023-03-15T15:28:36.844Z,1.40
2023-03-15T15:31:39.681Z,1.60
2023-03-15T15:34:42.807Z,1.27
2023-03-15T15:37:46.855Z,1.30
2023-03-15T15:40:49.098Z,1.30
2023-03-15T15:43:51.716Z,1.23
2023-03-15T15:46:54.171Z,1.60
2023-03-15T15:49:56.463Z,1.50
2023-03-15T15:52:59.588Z,1.60
2023-03-15T15:56:01.994Z,1.60
2023-03-15T15:59:04.997Z,1.27
2023-03-15T16:02:14.379Z,1.50
2023-03-15T16:05:16.911Z,1.00
2023-03-15T16:08:22.758Z,1.58
2023-03-15T16:11:25.183Z,1.13
2023-03-15T16:14:29.183Z,1.40
2023-03-15T16:17:31.682Z,2.45
2023-03-15T16:20:33.952Z,1.50
2023-03-15T16:23:36.357Z,1.48
2023-03-15T16:26:39.586Z,1.20
2023-03-15T16:29:49.353Z,1.67
2023-03-15T16:32:58.080Z,1.77
2023-03-15T16:36:01.680Z,1.43
2023-03-15T16:39:04.792Z,1.10
2023-03-15T16:42:07.541Z,1.23
2023-03-15T16:45:12.872Z,1.10
2023-03-15T16:48:15.688Z,1.52
2023-03-15T16:51:18.126Z,2.03
2023-03-15T16:54:38.280Z,2.72
2023-03-15T16:57:43.449Z,2.20
2023-03-15T17:00:48.684Z,1.73
2023-03-15T17:03:51.101Z,2.00
2023-03-15T17:06:53.532Z,1.63
2023-03-15T17:09:56.491Z,1.77
2023-03-15T17:13:02.044Z,1.40
2023-03-15T17:16:04.677Z,1.55
2023-03-15T17:19:11.679Z,1.50
2023-03-15T17:22:16.160Z,1.37
2023-03-15T17:25:19.575Z,1.02
2023-03-15T17:28:21.974Z,1.73
2023-03-15T17:31:25.626Z,1.30
2023-03-15T17:34:28.156Z,1.30
2023-03-15T17:37:33.930Z,1.47
2023-03-15T17:40:36.627Z,1.40
2023-03-15T17:43:39.043Z,1.50
2023-03-15T17:46:41.576Z,1.42
2023-03-15T17:49:44.069Z,1.67
2023-03-15T17:52:48.211Z,1.53
2023-03-15T17:55:53.682Z,1.33
2023-03-15T17:58:56.203Z,1.95
2023-03-15T18:01:58.767Z,1.67
2023-03-15T18:05:01.190Z,1.17
2023-03-15T18:08:06.853Z,1.67
2023-03-15T18:11:17.401Z,1.95
2023-03-15T18:14:20.912Z,1.80
2023-03-15T18:17:23.410Z,2.10
2023-03-15T18:20:26.208Z,1.88
2023-03-15T18:23:28.800Z,1.97
2023-03-15T18:26:31.259Z,1.50
2023-03-15T18:29:33.681Z,1.77
2023-03-15T18:32:36.090Z,1.80
2023-03-15T18:35:38.624Z,1.60
2023-03-15T18:38:41.168Z,2.30
2023-03-15T18:41:43.516Z,1.63
2023-03-15T18:44:46.108Z,1.60
2023-03-15T18:47:49.211Z,1.40
2023-03-15T18:50:52.577Z,1.67
2023-03-15T18:53:56.099Z,1.77
2023-03-15T18:56:58.862Z,1.95
2023-03-15T19:00:01.357Z,1.58
2023-03-15T19:03:05.018Z,1.65
2023-03-15T19:06:09.626Z,1.27
2023-03-15T19:09:11.974Z,1.70
2023-03-15T19:12:14.281Z,1.50
2023-03-15T19:15:18.195Z,1.50
2023-03-15T19:18:20.761Z,1.50
2023-03-15T19:21:23.045Z,1.50
2023-03-15T19:24:25.295Z,1.53
2023-03-15T19:27:27.662Z,1.63
2023-03-15T19:30:30.934Z,1.60
2023-03-15T19:33:34.549Z,1.67
2023-03-15T19:36:36.982Z,1.75
2023-03-15T19:39:39.470Z,1.60
2023-03-15T19:42:43.562Z,1.40
2023-03-15T19:45:45.954Z,1.85
2023-03-15T19:48:48.285Z,1.40
2023-03-15T19:51:50.571Z,1.60
2023-03-15T19:54:53.214Z,1.40
2023-03-15T19:57:55.569Z,1.73
2023-03-15T20:00:57.802Z,1.58
2023-03-15T20:04:00.315Z,1.65
2023-03-15T20:07:02.722Z,1.65
2023-03-15T20:10:08.559Z,1.53
2023-03-15T20:13:11.261Z,1.70
2023-03-15T20:16:13.673Z,1.58
2023-03-15T20:19:17.295Z,1.75
2023-03-15T20:22:19.910Z,1.58
2023-03-15T20:25:22.221Z,1.53
2023-03-15T20:28:24.540Z,1.75
2023-03-15T20:31:26.897Z,2.30
2023-03-15T20:34:29.461Z,1.50
2023-03-15T20:37:31.759Z,1.95
2023-03-15T20:40:38.524Z,1.90
2023-03-15T20:43:41.598Z,1.83
2023-03-15T20:46:44.013Z,1.50
2023-03-15T20:49:46.386Z,1.45
2023-03-15T20:52:49.147Z,1.98
2023-03-15T20:55:51.730Z,1.90
2023-03-15T20:58:54.229Z,1.63
2023-03-15T21:01:56.668Z,1.50
2023-03-15T21:04:59.325Z,1.80
2023-03-15T21:08:01.620Z,1.70
2023-03-15T21:11:06.280Z,1.50
2023-03-15T21:14:08.920Z,1.90
2023-03-15T21:17:11.456Z,2.13
2023-03-15T21:20:21.076Z,2.05
2023-03-15T21:23:24.066Z,1.75
2023-03-15T21:26:26.431Z,2.20
2023-03-15T21:29:29.023Z,1.70
2023-03-15T21:32:31.463Z,1.70
2023-03-15T21:35:34.432Z,1.92
2023-03-15T21:38:37.423Z,1.67
2023-03-15T21:41:39.752Z,1.90
2023-03-15T21:44:42.317Z,2.22
2023-03-15T21:47:47.116Z,1.80
2023-03-15T21:50:53.677Z,2.10
2023-03-15T21:53:56.027Z,1.83
2023-03-15T21:56:58.347Z,2.07
2023-03-15T22:00:01.565Z,1.65
2023-03-15T22:03:16.844Z,1.83
2023-03-15T22:06:21.778Z,2.28
2023-03-15T22:09:24.137Z,1.85
2023-03-15T22:12:26.455Z,1.80
2023-03-15T22:15:28.872Z,2.00
2023-03-15T22:18:32.143Z,2.20
2023-03-15T22:21:34.600Z,2.10
2023-03-15T22:24:36.907Z,2.80
2023-03-15T22:27:39.917Z,2.00
2023-03-15T22:30:42.812Z,2.28
2023-03-15T22:33:45.420Z,1.85
2023-03-15T22:36:47.906Z,1.98
2023-03-15T22:39:50.902Z,2.40
2023-03-15T22:42:53.318Z,2.33
2023-03-15T22:45:55.694Z,1.80
2023-03-15T22:48:59.279Z,1.88
2023-03-15T22:52:01.647Z,2.13
2023-03-15T22:55:04.398Z,1.98
2023-03-15T22:58:06.817Z,1.90
2023-03-15T23:01:09.840Z,1.70
2023-03-15T23:04:12.279Z,2.15
2023-03-15T23:07:14.764Z,1.65
2023-03-15T23:10:17.074Z,1.70
2023-03-15T23:13:19.622Z,1.73
2023-03-15T23:16:23.543Z,1.77
2023-03-15T23:19:25.996Z,1.65
2023-03-15T23:22:29.597Z,1.90
2023-03-15T23:25:35.983Z,1.77
2023-03-15T23:28:38.783Z,1.77
2023-03-15T23:31:42.040Z,1.67
2023-03-15T23:34:44.625Z,1.60
2023-03-15T23:37:46.958Z,1.73
2023-03-15T23:40:56.741Z,1.50
2023-03-15T23:43:59.301Z,1.70
2023-03-15T23:47:03.639Z,1.50
2023-03-15T23:50:06.857Z,2.17
2023-03-15T23:53:09.274Z,1.65
2023-03-15T23:56:11.566Z,1.75
2023-03-15T23:59:13.881Z,2.10
